createdAt,value
2019-04-26T00:00:02.065Z,5.43
2019-04-26T00:02:41.518Z,5.93
2019-04-26T00:05:10.478Z,5.90
2019-04-26T00:07:39.510Z,6.70
2019-04-26T00:10:10.492Z,6.80
2019-04-26T00:12:40.686Z,8.57
2019-04-26T00:15:14.325Z,8.60
2019-04-26T00:17:44.853Z,6.90
2019-04-26T00:20:13.289Z,8.40
2019-04-26T00:22:41.846Z,8.90
2019-04-26T00:25:11.436Z,7.67
2019-04-26T00:27:40.690Z,7.67
2019-04-26T00:30:10.504Z,9.03
2019-04-26T00:32:39.614Z,6.00
2019-04-26T00:35:08.141Z,7.20
2019-04-26T00:37:36.558Z,7.07
2019-04-26T00:40:06.202Z,6.73
2019-04-26T00:42:35.766Z,6.07
2019-04-26T00:45:05.074Z,6.43
2019-04-26T00:47:34.726Z,6.33
2019-04-26T00:50:04.090Z,6.23
2019-04-26T00:52:33.064Z,6.20
2019-04-26T00:55:01.879Z,6.43
2019-04-26T00:57:32.542Z,6.30
2019-04-26T01:00:02.239Z,7.13
2019-04-26T01:02:32.314Z,6.60
2019-04-26T01:05:00.736Z,6.47
2019-04-26T01:07:29.154Z,6.40
2019-04-26T01:09:57.571Z,7.00
2019-04-26T01:12:26.080Z,7.17
2019-04-26T01:14:54.707Z,6.43
2019-04-26T01:17:23.115Z,6.10
2019-04-26T01:19:54.844Z,6.80
2019-04-26T01:22:27.513Z,6.10
2019-04-26T01:24:57.574Z,5.83
2019-04-26T01:27:28.528Z,5.90
2019-04-26T01:30:00.064Z,6.30
2019-04-26T01:32:30.876Z,7.60
2019-04-26T01:34:59.639Z,6.57
2019-04-26T01:37:30.915Z,7.20
2019-04-26T01:40:04.148Z,6.30
2019-04-26T01:42:35.560Z,6.30
2019-04-26T01:45:16.012Z,7.30
2019-04-26T01:47:46.867Z,7.03
2019-04-26T01:50:15.755Z,7.07
2019-04-26T01:52:45.907Z,6.00
2019-04-26T01:55:15.372Z,6.40
2019-04-26T01:57:44.042Z,6.50
2019-04-26T02:00:15.456Z,6.40
2019-04-26T02:02:54.649Z,6.70
2019-04-26T02:05:25.902Z,7.13
2019-04-26T02:07:55.000Z,6.93
2019-04-26T02:10:25.254Z,7.40
2019-04-26T02:12:55.404Z,6.93
2019-04-26T02:15:27.299Z,7.40
2019-04-26T02:17:57.790Z,7.27
2019-04-26T02:21:17.029Z,8.17
2019-04-26T02:23:47.717Z,8.67
2019-04-26T02:26:32.952Z,8.83
2019-04-26T02:29:07.144Z,8.03
2019-04-26T02:31:37.966Z,6.70
2019-04-26T02:34:07.112Z,7.33
2019-04-26T02:36:55.195Z,6.60
2019-04-26T02:39:16.214Z,6.80
2019-04-26T02:41:46.961Z,6.40
2019-04-26T02:44:21.691Z,6.40
2019-04-26T02:46:55.787Z,5.60
2019-04-26T02:49:35.044Z,5.90
2019-04-26T02:52:24.441Z,6.47
2019-04-26T02:54:58.486Z,6.03
2019-04-26T02:57:44.274Z,5.70
2019-04-26T03:00:15.057Z,6.20
2019-04-26T03:02:46.610Z,5.73
2019-04-26T03:05:15.300Z,5.00
2019-04-26T03:07:46.857Z,5.27
2019-04-26T03:10:16.842Z,4.83
2019-04-26T03:12:46.868Z,5.57
2019-04-26T03:15:20.016Z,5.60
2019-04-26T03:17:58.758Z,5.50
2019-04-26T03:20:36.391Z,5.87
2019-04-26T03:23:17.698Z,5.53
2019-04-26T03:25:49.206Z,5.73
2019-04-26T03:28:20.775Z,5.73
2019-04-26T03:31:14.731Z,4.37
2019-04-26T03:34:11.040Z,5.33
2019-04-26T03:36:56.438Z,5.90
2019-04-26T03:39:37.156Z,5.37
2019-04-26T03:42:29.690Z,4.17
2019-04-26T03:45:03.912Z,4.97
2019-04-26T03:47:40.685Z,6.03
2019-04-26T03:50:17.337Z,6.03
2019-04-26T03:52:54.866Z,5.80
2019-04-26T03:55:28.306Z,5.67
2019-04-26T03:58:15.978Z,5.53
2019-04-26T04:00:52.442Z,5.10
2019-04-26T04:03:35.812Z,5.60
2019-04-26T04:06:08.896Z,5.47
2019-04-26T04:08:49.606Z,7.17
2019-04-26T04:11:21.204Z,5.87
2019-04-26T04:13:58.789Z,6.20
2019-04-26T04:16:56.443Z,6.10
2019-04-26T04:20:13.644Z,5.43
2019-04-26T04:22:45.894Z,5.87
2019-04-26T04:25:21.380Z,5.80
2019-04-26T04:27:52.952Z,7.03
2019-04-26T04:30:42.231Z,7.23
2019-04-26T04:33:19.872Z,7.00
2019-04-26T04:35:52.930Z,6.67
2019-04-26T04:38:46.393Z,6.67
2019-04-26T04:41:26.028Z,6.33
2019-04-26T04:44:02.205Z,7.33
2019-04-26T04:46:54.110Z,6.87
2019-04-26T04:49:42.983Z,6.80
2019-04-26T04:52:18.165Z,9.00
2019-04-26T04:55:03.271Z,7.60
2019-04-26T04:57:41.980Z,8.10
2019-04-26T05:00:18.112Z,7.13
2019-04-26T05:03:06.273Z,6.70
2019-04-26T05:06:07.289Z,7.30
2019-04-26T05:08:36.184Z,6.53
2019-04-26T05:11:19.492Z,6.37
2019-04-26T05:14:00.177Z,6.37
2019-04-26T05:16:39.036Z,6.60
2019-04-26T05:19:31.165Z,6.20
2019-04-26T05:22:29.706Z,5.60
2019-04-26T05:25:40.181Z,6.10
2019-04-26T05:28:24.094Z,5.93
2019-04-26T05:31:12.244Z,4.67
2019-04-26T05:33:47.754Z,5.37
2019-04-26T05:36:36.457Z,6.20
2019-04-26T05:39:17.360Z,5.77
2019-04-26T05:42:02.233Z,5.23
2019-04-26T05:45:04.189Z,5.37
2019-04-26T05:48:03.125Z,5.77
2019-04-26T05:50:56.000Z,5.83
2019-04-26T05:53:48.677Z,5.20
2019-04-26T05:56:28.180Z,5.40
2019-04-26T05:59:18.905Z,5.40
2019-04-26T06:02:20.466Z,5.20
2019-04-26T06:05:16.181Z,5.37
2019-04-26T06:08:30.689Z,5.13
2019-04-26T06:11:00.833Z,5.50
2019-04-26T06:14:14.565Z,4.90
2019-04-26T06:16:53.353Z,4.77
2019-04-26T06:19:26.518Z,5.40
2019-04-26T06:22:25.422Z,4.97
2019-04-26T06:25:04.529Z,4.90
2019-04-26T06:27:46.173Z,5.03
2019-04-26T06:30:21.106Z,4.53
2019-04-26T06:33:10.750Z,4.47
2019-04-26T06:35:43.523Z,4.70
2019-04-26T06:38:43.686Z,6.30
2019-04-26T06:41:21.528Z,5.53
2019-04-26T06:44:09.158Z,5.93
2019-04-26T06:47:03.977Z,5.47
2019-04-26T06:49:49.006Z,5.13
2019-04-26T06:52:20.554Z,4.13
2019-04-26T06:55:13.290Z,5.37
2019-04-26T06:58:16.635Z,6.10
2019-04-26T07:01:08.042Z,5.10
2019-04-26T07:04:12.959Z,5.67
2019-04-26T07:07:10.980Z,5.53
2019-04-26T07:10:03.956Z,5.23
2019-04-26T07:12:45.954Z,6.00
2019-04-26T07:15:28.852Z,5.07
2019-04-26T07:17:59.154Z,4.90
2019-04-26T07:20:33.886Z,4.40
2019-04-26T07:23:24.995Z,5.40
2019-04-26T07:26:09.762Z,5.57
2019-04-26T07:28:55.833Z,5.07
2019-04-26T07:31:46.935Z,5.30
2019-04-26T07:34:37.778Z,5.30
2019-04-26T07:37:43.991Z,5.63
2019-04-26T07:40:53.195Z,4.10
2019-04-26T07:43:42.815Z,5.40
2019-04-26T07:46:32.107Z,4.93
2019-04-26T07:49:18.317Z,5.20
2019-04-26T07:52:10.526Z,5.50
2019-04-26T07:54:48.004Z,4.93
2019-04-26T07:57:46.779Z,6.80
2019-04-26T08:00:25.883Z,5.37
2019-04-26T08:02:59.023Z,5.50
2019-04-26T08:05:46.886Z,5.80
2019-04-26T08:08:21.007Z,5.83
2019-04-26T08:11:04.583Z,3.80
2019-04-26T08:13:36.383Z,6.17
2019-04-26T08:16:12.374Z,6.30
2019-04-26T08:18:45.716Z,5.90
2019-04-26T08:21:33.669Z,5.33
2019-04-26T08:24:18.967Z,5.00
2019-04-26T08:27:08.747Z,6.10
2019-04-26T08:29:33.419Z,6.40
2019-04-26T08:32:06.999Z,5.40
2019-04-26T08:34:40.343Z,5.87
2019-04-26T08:37:17.862Z,6.10
2019-04-26T08:39:51.858Z,5.70
2019-04-26T08:42:23.830Z,5.87
2019-04-26T08:45:10.150Z,5.50
2019-04-26T08:47:42.196Z,6.50
2019-04-26T08:50:24.086Z,6.80
2019-04-26T08:52:54.224Z,5.87
2019-04-26T08:55:25.456Z,6.60
2019-04-26T08:57:56.976Z,6.40
2019-04-26T09:00:35.024Z,7.90
2019-04-26T09:03:11.723Z,7.10
2019-04-26T09:06:00.849Z,8.23
2019-04-26T09:08:32.361Z,7.83
2019-04-26T09:11:03.033Z,8.27
2019-04-26T09:13:37.225Z,6.67
2019-04-26T09:16:11.336Z,8.00
2019-04-26T09:18:43.581Z,7.47
2019-04-26T09:21:13.463Z,7.77
2019-04-26T09:24:04.265Z,8.07
2019-04-26T09:26:48.430Z,7.20
2019-04-26T09:29:26.389Z,7.40
2019-04-26T09:31:56.246Z,7.63
2019-04-26T09:34:29.317Z,7.47
2019-04-26T09:36:57.743Z,7.97
2019-04-26T09:39:26.182Z,7.10
2019-04-26T09:41:56.225Z,6.27
2019-04-26T09:44:27.356Z,7.43
2019-04-26T09:47:09.670Z,6.77
2019-04-26T09:49:42.685Z,7.90
2019-04-26T09:52:18.571Z,6.87
2019-04-26T09:54:47.031Z,7.63
2019-04-26T09:57:15.468Z,6.33
2019-04-26T09:59:43.900Z,6.50
2019-04-26T10:02:12.926Z,6.97
2019-04-26T10:04:41.358Z,7.00
2019-04-26T10:07:09.853Z,7.17
2019-04-26T10:09:38.279Z,6.77
2019-04-26T10:12:08.679Z,6.77
2019-04-26T10:14:46.475Z,6.73
2019-04-26T10:17:17.498Z,7.27
2019-04-26T10:19:47.818Z,7.73
2019-04-26T10:22:16.331Z,8.00
2019-04-26T10:24:44.739Z,6.73
2019-04-26T10:27:13.167Z,5.77
2019-04-26T10:29:41.623Z,5.03
2019-04-26T10:32:10.299Z,5.93
2019-04-26T10:34:42.574Z,5.97
2019-04-26T10:37:08.871Z,6.13
2019-04-26T10:39:37.329Z,6.60
2019-04-26T10:42:26.907Z,6.13
2019-04-26T10:44:55.362Z,6.60
2019-04-26T10:47:23.792Z,5.30
2019-04-26T10:49:54.471Z,5.30
2019-04-26T10:52:29.971Z,4.57
2019-04-26T10:55:17.384Z,6.53
2019-04-26T10:57:47.667Z,5.30
2019-04-26T11:00:19.079Z,5.47
2019-04-26T11:02:47.699Z,5.93
2019-04-26T11:05:18.552Z,4.50
2019-04-26T11:07:46.420Z,4.77
2019-04-26T11:10:15.376Z,4.87
2019-04-26T11:12:44.781Z,4.47
2019-04-26T11:15:15.168Z,4.40
2019-04-26T11:17:50.030Z,5.00
2019-04-26T11:20:16.708Z,4.70
2019-04-26T11:22:45.195Z,4.83
2019-04-26T11:25:13.704Z,3.97
2019-04-26T11:27:44.283Z,3.93
2019-04-26T11:30:20.312Z,3.90
2019-04-26T11:32:42.804Z,4.60
2019-04-26T11:35:11.219Z,3.67
2019-04-26T11:37:40.137Z,4.30
2019-04-26T11:40:10.245Z,4.23
2019-04-26T11:42:41.963Z,3.80
2019-04-26T11:45:14.719Z,3.80
2019-04-26T11:50:44.481Z,3.33
2019-04-26T11:53:12.914Z,4.07
2019-04-26T11:55:41.357Z,4.60
2019-04-26T11:58:09.853Z,3.60
2019-04-26T12:00:39.983Z,4.60
2019-04-26T12:03:08.409Z,4.40
2019-04-26T12:05:38.481Z,4.57
2019-04-26T12:08:08.637Z,3.83
2019-04-26T12:10:40.575Z,3.80
2019-04-26T12:13:07.261Z,4.40
2019-04-26T12:15:39.224Z,3.40
2019-04-26T12:18:09.821Z,3.73
2019-04-26T12:20:36.393Z,3.40
2019-04-26T12:23:04.842Z,4.03
2019-04-26T12:25:33.290Z,3.37
2019-04-26T12:28:05.682Z,5.07
2019-04-26T12:30:31.871Z,4.70
2019-04-26T12:33:00.306Z,4.80
2019-04-26T12:35:48.074Z,4.67
2019-04-26T12:38:17.401Z,4.80
2019-04-26T12:40:46.343Z,5.20
2019-04-26T12:43:20.068Z,4.40
2019-04-26T12:45:51.428Z,4.23
2019-04-26T12:48:22.444Z,4.73
2019-04-26T12:51:13.266Z,4.50
2019-04-26T12:53:44.218Z,4.10
2019-04-26T12:56:12.694Z,4.00
2019-04-26T12:58:41.126Z,4.50
2019-04-26T13:01:12.301Z,5.40
2019-04-26T13:03:43.207Z,4.97
2019-04-26T13:06:11.810Z,4.23
2019-04-26T13:08:40.426Z,4.80
2019-04-26T13:11:14.922Z,4.70
2019-04-26T13:13:46.962Z,5.60
2019-04-26T13:16:35.327Z,4.50
2019-04-26T13:19:03.778Z,5.63
2019-04-26T13:21:33.184Z,4.73
2019-04-26T13:24:04.362Z,4.73
2019-04-26T13:26:34.888Z,4.87
2019-04-26T13:29:03.474Z,5.13
2019-04-26T13:31:32.102Z,5.23
2019-04-26T13:34:02.816Z,5.47
2019-04-26T13:36:31.163Z,5.00
2019-04-26T13:38:59.611Z,5.37
2019-04-26T13:41:28.542Z,5.47
2019-04-26T13:43:57.116Z,5.00
2019-04-26T13:49:18.166Z,5.00
2019-04-26T13:51:46.832Z,5.83
2019-04-26T13:54:16.486Z,5.00
2019-04-26T13:56:45.423Z,5.70
2019-04-26T13:59:13.967Z,5.67
2019-04-26T14:01:43.974Z,4.93
2019-04-26T14:04:12.866Z,4.47
2019-04-26T14:06:41.427Z,4.87
2019-04-26T14:09:11.547Z,4.77
2019-04-26T14:11:39.992Z,5.90
2019-04-26T14:14:08.496Z,4.73
2019-04-26T14:16:37.065Z,4.80
2019-04-26T14:19:05.577Z,6.07
2019-04-26T14:21:34.855Z,5.33
2019-04-26T14:24:08.309Z,5.00
2019-04-26T14:26:40.001Z,6.83
2019-04-26T14:29:08.618Z,6.00
2019-04-26T14:31:37.187Z,5.70
2019-04-26T14:34:07.035Z,6.17
2019-04-26T14:36:35.719Z,6.40
2019-04-26T14:39:10.572Z,6.17
2019-04-26T14:41:37.963Z,6.47
2019-04-26T14:44:15.182Z,6.00
2019-04-26T14:46:48.213Z,14.83
2019-04-26T14:49:06.988Z,6.80
2019-04-26T14:51:35.497Z,6.00
2019-04-26T14:54:07.397Z,6.30
2019-04-26T14:56:34.748Z,5.93
2019-04-26T14:59:08.347Z,6.57
2019-04-26T15:04:29.262Z,7.27
2019-04-26T15:06:59.690Z,6.50
2019-04-26T15:09:33.133Z,7.50
2019-04-26T15:12:01.263Z,6.27
2019-04-26T15:14:49.330Z,7.60
2019-04-26T15:17:20.143Z,6.43
2019-04-26T15:19:48.326Z,6.23
2019-04-26T15:22:16.829Z,7.40
2019-04-26T15:24:45.397Z,7.03
2019-04-26T15:27:13.850Z,6.27
2019-04-26T15:30:04.294Z,5.90
2019-04-26T15:32:34.008Z,6.60
2019-04-26T15:35:23.071Z,5.73
2019-04-26T15:37:53.343Z,6.10
2019-04-26T15:40:39.554Z,5.23
2019-04-26T15:43:32.745Z,4.90
2019-04-26T15:46:03.050Z,5.30
2019-04-26T15:48:54.624Z,5.90
2019-04-26T15:51:27.455Z,4.93
2019-04-26T15:53:56.130Z,5.30
2019-04-26T15:56:24.583Z,5.80
2019-04-26T15:58:52.990Z,5.77
2019-04-26T16:01:21.426Z,5.20
2019-04-26T16:03:49.918Z,6.70
2019-04-26T16:06:18.335Z,6.07
2019-04-26T16:08:46.767Z,5.40
2019-04-26T16:11:15.458Z,5.30
2019-04-26T16:13:45.103Z,5.23
2019-04-26T16:16:16.368Z,4.80
2019-04-26T16:18:44.250Z,6.67
2019-04-26T16:21:17.820Z,7.57
2019-04-26T16:23:50.952Z,6.90
2019-04-26T16:26:15.326Z,7.77
2019-04-26T16:29:03.203Z,6.13
2019-04-26T16:34:23.392Z,6.30
2019-04-26T16:36:52.597Z,6.30
2019-04-26T16:42:17.007Z,5.90
2019-04-26T16:44:45.723Z,7.70
2019-04-26T16:47:14.211Z,7.30
2019-04-26T16:49:46.213Z,7.87
2019-04-26T16:52:14.012Z,6.87
2019-04-26T16:54:42.645Z,6.83
2019-04-26T16:57:12.325Z,6.60
2019-04-26T16:59:48.978Z,5.63
2019-04-26T17:02:15.591Z,5.33
2019-04-26T17:04:43.408Z,5.73
2019-04-26T17:07:13.380Z,5.90
2019-04-26T17:09:57.081Z,5.30
2019-04-26T17:12:15.063Z,5.77
2019-04-26T17:14:47.754Z,6.40
2019-04-26T17:17:14.003Z,5.70
2019-04-26T17:19:43.255Z,6.60
2019-04-26T17:22:19.308Z,6.40
2019-04-26T17:25:06.988Z,6.17
2019-04-26T17:27:35.600Z,5.57
2019-04-26T17:30:08.210Z,5.93
2019-04-26T17:32:55.996Z,4.90
2019-04-26T17:35:25.436Z,5.33
2019-04-26T17:37:57.371Z,5.10
2019-04-26T17:40:30.167Z,5.10
2019-04-26T17:42:55.817Z,5.50
2019-04-26T17:45:24.302Z,5.37
2019-04-26T17:47:53.013Z,5.97
2019-04-26T17:50:21.601Z,4.90
2019-04-26T17:52:51.558Z,5.80
2019-04-26T17:55:20.381Z,5.40
2019-04-26T17:57:50.673Z,5.07
2019-04-26T18:00:26.754Z,6.17
2019-04-26T18:02:51.244Z,5.87
2019-04-26T18:05:24.426Z,5.87
2019-04-26T18:07:56.396Z,6.37
2019-04-26T18:10:20.817Z,6.20
2019-04-26T18:12:50.765Z,5.07
2019-04-26T18:15:19.618Z,5.20
2019-04-26T18:18:09.674Z,5.57
2019-04-26T18:20:45.778Z,5.20
2019-04-26T18:23:18.760Z,4.87
2019-04-26T18:25:47.502Z,5.67
2019-04-26T18:28:16.434Z,5.83
2019-04-26T18:30:47.584Z,6.23
2019-04-26T18:33:17.560Z,7.63
2019-04-26T18:35:49.197Z,6.50
2019-04-26T18:38:15.854Z,5.60
2019-04-26T18:41:00.037Z,5.63
2019-04-26T18:43:18.801Z,6.80
2019-04-26T18:45:46.914Z,6.10
2019-04-26T18:48:15.522Z,5.97
2019-04-26T18:50:45.979Z,6.40
2019-04-26T18:53:19.480Z,6.87
2019-04-26T18:55:48.606Z,5.60
2019-04-26T18:58:19.738Z,6.60
2019-04-26T19:00:48.231Z,5.83
2019-04-26T19:03:16.714Z,6.50
2019-04-26T19:05:45.217Z,6.23
2019-04-26T19:08:14.948Z,5.57
2019-04-26T19:10:43.789Z,6.47
2019-04-26T19:13:16.691Z,5.87
2019-04-26T19:15:51.447Z,6.40
2019-04-26T19:18:56.019Z,6.03
2019-04-26T19:21:32.326Z,5.93
2019-04-26T19:24:05.868Z,6.73
2019-04-26T19:26:32.971Z,6.90
2019-04-26T19:28:59.459Z,6.37
2019-04-26T19:31:28.016Z,6.60
2019-04-26T19:33:56.447Z,4.47
2019-04-26T19:36:27.820Z,6.00
2019-04-26T19:38:55.107Z,6.00
2019-04-26T19:41:25.182Z,5.70
2019-04-26T19:43:53.688Z,5.60
2019-04-26T19:46:25.358Z,5.30
2019-04-26T19:48:56.681Z,5.53
2019-04-26T19:51:43.597Z,6.07
2019-04-26T19:54:21.485Z,6.43
2019-04-26T19:56:51.544Z,5.40
2019-04-26T19:59:21.895Z,5.63
2019-04-26T20:01:55.189Z,5.87
2019-04-26T20:04:24.517Z,6.60
2019-04-26T20:06:52.427Z,6.03
2019-04-26T20:09:22.864Z,6.77
2019-04-26T20:12:12.106Z,5.47
2019-04-26T20:14:49.242Z,6.00
2019-04-26T20:17:13.325Z,6.30
2019-04-26T20:19:42.320Z,6.30
2019-04-26T20:22:10.884Z,6.90
2019-04-26T20:24:41.365Z,6.33
2019-04-26T20:27:15.595Z,6.90
2019-04-26T20:29:47.187Z,5.57
2019-04-26T20:32:21.126Z,6.20
2019-04-26T20:35:05.645Z,6.50
2019-04-26T20:37:34.077Z,6.40
2019-04-26T20:40:16.266Z,5.37
2019-04-26T20:42:32.642Z,6.23
2019-04-26T20:45:04.465Z,6.43
2019-04-26T20:47:32.030Z,6.00
2019-04-26T20:50:02.902Z,5.67
2019-04-26T20:52:32.155Z,5.03
2019-04-26T20:55:00.711Z,4.80
2019-04-26T20:57:31.333Z,3.90
2019-04-26T21:00:03.304Z,3.90
2019-04-26T21:02:29.479Z,3.93
2019-04-26T21:04:57.919Z,3.47
2019-04-26T21:07:49.585Z,3.30
2019-04-26T21:10:21.959Z,3.43
2019-04-26T21:12:47.361Z,3.43
2019-04-26T21:15:20.292Z,3.47
2019-04-26T21:17:46.620Z,3.83
2019-04-26T21:20:15.388Z,3.27
2019-04-26T21:22:44.108Z,3.00
2019-04-26T21:25:14.184Z,3.30
2019-04-26T21:27:44.255Z,3.10
2019-04-26T21:30:14.497Z,2.60
2019-04-26T21:33:01.000Z,2.60
2019-04-26T21:35:40.228Z,3.43
2019-04-26T21:38:29.704Z,2.17
2019-04-26T21:41:10.934Z,2.80
2019-04-26T21:43:34.730Z,2.30
2019-04-26T21:46:08.323Z,2.50
2019-04-26T21:48:33.316Z,2.73
2019-04-26T21:51:03.113Z,3.07
2019-04-26T21:53:32.755Z,2.73
2019-04-26T21:56:03.036Z,2.70
2019-04-26T21:58:31.713Z,2.50
2019-04-26T22:01:04.598Z,2.40
2019-04-26T22:03:33.637Z,2.17
2019-04-26T22:06:02.097Z,1.90
2019-04-26T22:08:33.020Z,2.47
2019-04-26T22:11:03.609Z,2.20
2019-04-26T22:13:37.318Z,2.90
2019-04-26T22:16:37.426Z,2.47
2019-04-26T22:19:05.511Z,2.00
2019-04-26T22:21:35.574Z,1.80
2019-04-26T22:24:06.001Z,1.63
2019-04-26T22:26:37.975Z,2.23
2019-04-26T22:29:08.141Z,1.57
2019-04-26T22:31:37.929Z,1.70
2019-04-26T22:34:07.567Z,1.33
2019-04-26T22:36:35.757Z,1.50
2019-04-26T22:39:09.087Z,1.97
2019-04-26T22:41:37.959Z,2.20
2019-04-26T22:44:08.035Z,1.83
2019-04-26T22:47:04.768Z,2.10
2019-04-26T22:49:35.064Z,2.07
2019-04-26T22:52:06.402Z,2.00
2019-04-26T22:54:37.810Z,2.30
2019-04-26T22:57:10.775Z,1.63
2019-04-26T22:59:38.112Z,1.90
2019-04-26T23:02:06.260Z,1.53
2019-04-26T23:04:34.687Z,1.60
2019-04-26T23:07:03.706Z,1.80
2019-04-26T23:09:33.382Z,2.00
2019-04-26T23:12:26.046Z,2.30
2019-04-26T23:14:55.062Z,1.80
2019-04-26T23:17:39.887Z,2.50
2019-04-26T23:20:15.900Z,2.10
2019-04-26T23:22:44.344Z,2.27
2019-04-26T23:25:13.673Z,2.10
2019-04-26T23:27:43.528Z,2.10
2019-04-26T23:30:13.696Z,2.50
2019-04-26T23:32:43.459Z,1.90
2019-04-26T23:35:13.599Z,2.20
2019-04-26T23:37:42.393Z,1.97
2019-04-26T23:40:11.168Z,1.97
2019-04-26T23:42:39.604Z,1.83
2019-04-26T23:45:10.819Z,2.20
2019-04-26T23:47:39.057Z,1.80
2019-04-26T23:50:07.732Z,1.93
2019-04-26T23:52:36.239Z,1.80
2019-04-26T23:55:08.738Z,1.90
2019-04-26T23:57:36.307Z,2.50
